createdAt,value
2019-03-30T00:01:17.140Z,2.30
2019-03-30T00:03:58.315Z,2.20
2019-03-30T00:06:39.758Z,2.20
2019-03-30T00:09:21.421Z,2.10
2019-03-30T00:14:48.180Z,2.00
2019-03-30T00:17:32.980Z,1.90
2019-03-30T00:20:14.434Z,1.80
2019-03-30T00:22:56.332Z,1.70
2019-03-30T00:25:37.766Z,1.70
2019-03-30T00:28:20.824Z,1.60
2019-03-30T00:31:02.443Z,1.60
2019-03-30T00:33:43.603Z,1.60
2019-03-30T00:36:25.397Z,1.60
2019-03-30T00:39:06.602Z,1.60
2019-03-30T00:41:48.078Z,1.60
2019-03-30T00:44:29.584Z,1.60
2019-03-30T00:47:12.124Z,1.50
2019-03-30T00:49:54.719Z,1.50
2019-03-30T00:52:35.447Z,1.40
2019-03-30T00:55:17.055Z,1.40
2019-03-30T01:00:44.784Z,1.30
2019-03-30T01:06:15.674Z,1.30
2019-03-30T01:11:47.212Z,1.20
2019-03-30T01:14:28.797Z,1.20
2019-03-30T01:20:02.842Z,1.20
2019-03-30T01:28:17.946Z,1.10
2019-03-30T01:33:45.803Z,1.00
2019-03-30T01:36:27.580Z,0.90
2019-03-30T01:41:58.537Z,0.90
2019-03-30T01:44:39.494Z,0.80
2019-03-30T01:50:16.647Z,0.70
2019-03-30T01:52:48.937Z,0.70
2019-03-30T01:55:31.359Z,0.60
2019-03-30T01:58:12.512Z,0.60
2019-03-30T02:00:53.654Z,0.60
2019-03-30T02:03:35.012Z,0.60
2019-03-30T02:06:16.276Z,0.50
2019-03-30T02:08:57.716Z,0.50
2019-03-30T02:11:38.949Z,0.40
2019-03-30T02:14:19.698Z,0.40
2019-03-30T02:17:01.027Z,0.40
2019-03-30T02:19:43.418Z,0.30
2019-03-30T02:22:25.807Z,0.30
2019-03-30T02:25:07.879Z,0.30
2019-03-30T02:27:49.703Z,0.30
2019-03-30T02:30:31.192Z,0.30
2019-03-30T02:33:13.717Z,0.30
2019-03-30T02:35:54.569Z,0.30
2019-03-30T02:38:38.163Z,0.20
2019-03-30T02:41:19.127Z,0.20
2019-03-30T02:44:00.196Z,0.20
2019-03-30T02:46:41.740Z,0.20
2019-03-30T02:49:22.891Z,0.10
2019-03-30T02:54:53.184Z,0.00
2019-03-30T03:03:09.767Z,0.00
2019-03-30T03:08:41.434Z,0.00
2019-03-30T03:11:22.364Z,-0.10
2019-03-30T03:13:51.103Z,-0.10
2019-03-30T03:16:39.537Z,-0.10
2019-03-30T03:19:27.878Z,-0.20
2019-03-30T03:22:13.837Z,-0.20
2019-03-30T03:24:54.074Z,-0.20
2019-03-30T03:27:43.602Z,-0.20
2019-03-30T03:30:25.137Z,-0.20
2019-03-30T03:35:46.159Z,-0.20
2019-03-30T03:38:29.175Z,-0.20
2019-03-30T03:41:10.830Z,-0.20
2019-03-30T03:46:42.301Z,-0.30
2019-03-30T03:49:23.885Z,-0.30
2019-03-30T03:52:05.205Z,-0.30
2019-03-30T03:57:36.284Z,-0.40
2019-03-30T04:00:17.725Z,-0.40
2019-03-30T04:02:58.861Z,-0.40
2019-03-30T04:14:28.256Z,-0.40
2019-03-30T04:17:09.516Z,-0.50
2019-03-30T04:25:35.970Z,-0.60
2019-03-30T04:30:57.408Z,-0.70
2019-03-30T04:33:39.045Z,-0.70
2019-03-30T04:36:21.317Z,-0.70
2019-03-30T04:39:02.855Z,-0.60
2019-03-30T04:44:35.016Z,-0.70
2019-03-30T04:47:16.093Z,-0.70
2019-03-30T04:49:57.311Z,-0.70
2019-03-30T04:52:38.208Z,-0.80
2019-03-30T04:55:20.228Z,-0.80
2019-03-30T04:58:01.165Z,-0.80
2019-03-30T05:00:41.607Z,-0.80
2019-03-30T05:03:22.603Z,-0.80
2019-03-30T05:06:03.626Z,-0.80
2019-03-30T05:08:44.247Z,-0.90
2019-03-30T05:11:25.985Z,-0.90
2019-03-30T05:14:06.707Z,-0.80
2019-03-30T05:16:47.509Z,-0.80
2019-03-30T05:19:28.411Z,-0.70
2019-03-30T05:22:13.512Z,-0.60
2019-03-30T05:24:52.477Z,-0.60
2019-03-30T05:27:34.004Z,-0.50
2019-03-30T05:30:02.603Z,-0.40
2019-03-30T05:33:04.637Z,-0.30
2019-03-30T05:35:40.365Z,-0.20
2019-03-30T05:38:21.938Z,0.00
2019-03-30T05:41:03.308Z,0.20
2019-03-30T05:43:43.650Z,0.30
2019-03-30T05:46:24.561Z,0.50
2019-03-30T05:49:05.398Z,0.60
2019-03-30T05:51:46.758Z,0.80
2019-03-30T05:54:27.972Z,1.00
2019-03-30T05:57:09.471Z,1.20
2019-03-30T05:59:50.385Z,1.40
2019-03-30T06:02:31.500Z,1.60
2019-03-30T06:07:56.305Z,2.00
2019-03-30T06:13:21.921Z,2.40
2019-03-30T06:18:46.848Z,2.70
2019-03-30T06:24:27.477Z,2.90
2019-03-30T06:27:08.567Z,3.00
2019-03-30T06:32:38.318Z,3.20
2019-03-30T06:38:08.943Z,3.50
2019-03-30T06:43:33.831Z,3.90
2019-03-30T06:46:14.984Z,4.20
2019-03-30T06:48:55.311Z,4.30
2019-03-30T06:51:36.225Z,4.50
2019-03-30T06:54:17.154Z,4.60
2019-03-30T06:56:58.028Z,4.70
2019-03-30T06:59:39.203Z,4.90
2019-03-30T07:02:20.483Z,5.00
2019-03-30T07:05:01.577Z,5.20
2019-03-30T07:07:43.759Z,5.40
2019-03-30T07:10:25.432Z,5.60
2019-03-30T07:13:07.791Z,5.80
2019-03-30T07:15:48.224Z,6.00
2019-03-30T07:18:29.084Z,6.20
2019-03-30T07:21:10.522Z,6.40
2019-03-30T07:23:53.835Z,6.60
2019-03-30T07:26:34.746Z,6.70
2019-03-30T07:29:15.709Z,6.80
2019-03-30T07:31:56.272Z,7.00
2019-03-30T07:34:37.134Z,7.20
2019-03-30T07:37:17.783Z,7.40
2019-03-30T07:39:58.517Z,7.80
2019-03-30T07:42:39.562Z,8.10
2019-03-30T07:45:20.206Z,8.50
2019-03-30T07:48:01.249Z,8.80
2019-03-30T07:53:27.149Z,9.40
2019-03-30T07:56:09.057Z,9.60
2019-03-30T07:58:49.925Z,9.80
2019-03-30T08:01:30.761Z,10.10
2019-03-30T08:04:11.531Z,10.30
2019-03-30T08:06:52.791Z,10.60
2019-03-30T08:09:36.994Z,10.80
2019-03-30T08:12:18.339Z,11.00
2019-03-30T08:17:47.930Z,11.30
2019-03-30T08:23:17.373Z,11.60
2019-03-30T08:25:59.245Z,11.80
2019-03-30T08:28:40.435Z,12.00
2019-03-30T08:34:10.866Z,12.00
2019-03-30T08:36:52.100Z,12.10
2019-03-30T08:39:33.894Z,12.30
2019-03-30T08:42:14.743Z,12.30
2019-03-30T08:48:07.893Z,12.60
2019-03-30T08:53:34.205Z,12.90
2019-03-30T08:59:00.850Z,13.10
2019-03-30T09:04:26.353Z,13.30
2019-03-30T09:12:59.362Z,13.70
2019-03-30T09:15:39.998Z,13.80
2019-03-30T09:18:21.078Z,13.90
2019-03-30T09:21:02.386Z,13.90
2019-03-30T09:23:44.831Z,13.90
2019-03-30T09:29:10.590Z,14.10
2019-03-30T09:34:41.964Z,14.50
2019-03-30T09:37:23.023Z,14.70
2019-03-30T09:40:04.529Z,14.80
2019-03-30T09:42:46.214Z,14.90
2019-03-30T09:48:16.269Z,15.10
2019-03-30T09:50:57.671Z,15.30
2019-03-30T09:53:40.567Z,15.60
2019-03-30T09:56:21.479Z,15.70
2019-03-30T09:59:02.655Z,15.70
2019-03-30T10:04:31.103Z,15.60
2019-03-30T10:07:12.245Z,15.70
2019-03-30T10:09:53.639Z,15.80
2019-03-30T10:15:38.986Z,16.10
2019-03-30T10:18:21.787Z,16.30
2019-03-30T10:21:02.753Z,16.30
2019-03-30T10:39:00.934Z,16.90
2019-03-30T10:41:41.460Z,16.90
2019-03-30T10:44:22.796Z,16.90
2019-03-30T10:47:04.039Z,17.10
2019-03-30T10:49:45.078Z,17.10
2019-03-30T10:55:10.942Z,17.30
2019-03-30T10:57:52.206Z,17.40
2019-03-30T11:03:26.651Z,17.80
2019-03-30T11:06:08.174Z,18.10
2019-03-30T11:08:49.531Z,18.10
2019-03-30T11:14:44.916Z,17.80
2019-03-30T11:17:25.368Z,17.80
2019-03-30T11:22:59.926Z,18.00
2019-03-30T11:25:40.318Z,18.00
2019-03-30T11:28:21.411Z,18.20
2019-03-30T11:31:05.265Z,18.30
2019-03-30T11:36:49.351Z,18.30
2019-03-30T11:39:31.318Z,18.20
2019-03-30T11:45:00.280Z,18.40
2019-03-30T11:50:25.482Z,18.50
2019-03-30T11:53:06.658Z,18.50
2019-03-30T11:55:48.173Z,18.50
2019-03-30T12:01:21.752Z,18.70
2019-03-30T12:04:05.882Z,18.80
2019-03-30T12:06:47.149Z,18.90
2019-03-30T12:09:27.889Z,18.90
2019-03-30T12:12:09.193Z,18.90
2019-03-30T12:14:50.177Z,19.00
2019-03-30T12:20:16.253Z,18.90
2019-03-30T12:23:01.233Z,18.90
2019-03-30T12:25:42.560Z,18.80
2019-03-30T12:28:24.820Z,18.70
2019-03-30T12:31:05.884Z,18.80
2019-03-30T12:33:46.892Z,18.80
2019-03-30T12:39:17.827Z,18.80
2019-03-30T12:41:58.723Z,18.70
2019-03-30T12:44:39.834Z,18.60
2019-03-30T12:50:10.573Z,18.30
2019-03-30T12:52:52.158Z,18.10
2019-03-30T12:55:33.652Z,17.90
2019-03-30T12:58:14.871Z,17.80
2019-03-30T13:00:56.402Z,17.60
2019-03-30T13:03:38.128Z,17.40
2019-03-30T13:06:19.634Z,17.30
2019-03-30T13:09:00.762Z,17.30
2019-03-30T13:11:42.232Z,17.20
2019-03-30T13:14:23.564Z,17.20
2019-03-30T13:17:05.056Z,17.20
2019-03-30T13:19:49.720Z,17.20
2019-03-30T13:22:30.831Z,17.20
2019-03-30T13:25:13.654Z,17.20
2019-03-30T13:27:54.281Z,17.10
2019-03-30T13:30:35.802Z,17.10
2019-03-30T13:33:17.133Z,17.00
2019-03-30T13:35:58.528Z,16.90
2019-03-30T13:41:23.286Z,16.90
2019-03-30T13:44:05.088Z,17.10
2019-03-30T13:46:45.977Z,17.10
2019-03-30T13:49:29.639Z,17.10
2019-03-30T13:52:13.335Z,17.10
2019-03-30T13:54:57.950Z,17.10
2019-03-30T13:57:39.148Z,17.20
2019-03-30T14:00:20.822Z,17.40
2019-03-30T14:03:01.649Z,17.80
2019-03-30T14:05:43.227Z,18.40
2019-03-30T14:08:24.020Z,19.30
2019-03-30T14:11:04.684Z,20.10
2019-03-30T14:13:45.097Z,20.70
2019-03-30T14:16:24.807Z,21.20
2019-03-30T14:21:49.816Z,20.90
2019-03-30T14:24:33.428Z,20.40
2019-03-30T14:27:14.160Z,19.90
2019-03-30T14:29:59.002Z,19.60
2019-03-30T14:35:51.998Z,20.10
2019-03-30T14:38:32.315Z,20.60
2019-03-30T14:41:15.154Z,20.80
2019-03-30T14:43:56.538Z,20.90
2019-03-30T14:46:37.413Z,21.00
2019-03-30T14:49:18.892Z,21.00
2019-03-30T14:51:59.918Z,20.70
2019-03-30T14:54:52.258Z,20.50
2019-03-30T14:57:23.042Z,20.20
2019-03-30T15:00:04.349Z,19.70
2019-03-30T15:02:45.980Z,19.30
2019-03-30T15:05:26.810Z,18.90
2019-03-30T15:08:07.980Z,18.80
2019-03-30T15:10:49.634Z,18.80
2019-03-30T15:13:31.166Z,19.00
2019-03-30T15:16:12.811Z,19.20
2019-03-30T15:18:54.475Z,19.20
2019-03-30T15:21:35.888Z,19.40
2019-03-30T15:24:17.401Z,19.50
2019-03-30T15:27:00.354Z,19.10
2019-03-30T15:29:45.293Z,18.60
2019-03-30T15:32:24.204Z,18.00
2019-03-30T15:38:08.819Z,17.20
2019-03-30T15:46:57.359Z,16.40
2019-03-30T15:52:23.776Z,16.00
2019-03-30T15:55:05.141Z,15.80
2019-03-30T15:57:46.752Z,15.60
2019-03-30T16:00:27.976Z,15.50
2019-03-30T16:03:09.557Z,15.40
2019-03-30T16:05:52.099Z,15.20
2019-03-30T16:08:33.713Z,15.20
2019-03-30T16:11:15.437Z,15.10
2019-03-30T16:13:59.957Z,15.00
2019-03-30T16:38:09.819Z,14.40
2019-03-30T16:40:52.234Z,14.30
2019-03-30T16:43:33.159Z,14.20
2019-03-30T16:46:14.607Z,14.10
2019-03-30T16:51:40.453Z,13.90
2019-03-30T16:54:21.915Z,13.80
2019-03-30T16:57:03.477Z,13.80
2019-03-30T16:59:44.730Z,13.60
2019-03-30T17:02:29.108Z,13.60
2019-03-30T17:05:10.173Z,13.40
2019-03-30T17:07:55.357Z,13.30
2019-03-30T17:10:40.151Z,13.10
2019-03-30T17:13:20.917Z,13.00
2019-03-30T17:16:03.259Z,12.90
2019-03-30T17:18:44.431Z,12.80
2019-03-30T17:21:25.464Z,12.60
2019-03-30T17:24:07.010Z,12.50
2019-03-30T17:26:48.610Z,12.30
2019-03-30T17:29:30.847Z,12.20
2019-03-30T17:32:11.860Z,12.00
2019-03-30T17:34:54.400Z,11.80
2019-03-30T17:37:35.775Z,11.70
2019-03-30T17:43:00.186Z,11.40
2019-03-30T17:45:41.326Z,11.30
2019-03-30T17:48:22.936Z,11.20
2019-03-30T17:51:04.017Z,11.10
2019-03-30T17:53:44.736Z,10.90
2019-03-30T17:56:25.403Z,10.80
2019-03-30T17:59:06.889Z,10.70
2019-03-30T18:01:47.924Z,10.60
2019-03-30T18:04:32.895Z,10.40
2019-03-30T18:07:13.999Z,10.30
2019-03-30T18:12:42.314Z,10.10
2019-03-30T18:18:10.107Z,9.80
2019-03-30T18:20:51.267Z,9.70
2019-03-30T18:23:31.794Z,9.50
2019-03-30T18:26:12.317Z,9.40
2019-03-30T18:28:52.874Z,9.30
2019-03-30T18:31:33.649Z,9.20
2019-03-30T18:34:14.949Z,9.20
2019-03-30T18:36:56.592Z,9.10
2019-03-30T18:39:37.844Z,9.00
2019-03-30T18:42:19.546Z,9.00
2019-03-30T18:45:05.713Z,9.00
2019-03-30T18:47:47.226Z,8.90
2019-03-30T18:50:28.024Z,8.80
2019-03-30T18:53:09.050Z,8.70
2019-03-30T18:58:41.548Z,8.50
2019-03-30T19:01:16.582Z,8.30
2019-03-30T19:03:58.071Z,8.20
2019-03-30T19:06:39.248Z,8.00
2019-03-30T19:09:19.959Z,8.00
2019-03-30T19:12:00.620Z,7.80
2019-03-30T19:14:41.147Z,7.70
2019-03-30T19:17:22.272Z,7.70
2019-03-30T19:20:03.608Z,7.70
2019-03-30T19:22:43.980Z,7.60
2019-03-30T19:25:24.751Z,7.60
2019-03-30T19:28:06.478Z,7.50
2019-03-30T19:30:47.570Z,7.50
2019-03-30T19:33:28.717Z,7.60
2019-03-30T19:36:10.325Z,7.60
2019-03-30T19:38:51.223Z,7.60
2019-03-30T19:41:32.398Z,7.50
2019-03-30T19:44:13.805Z,7.30
2019-03-30T19:46:54.858Z,7.20
2019-03-30T19:49:35.953Z,7.10
2019-03-30T19:52:16.849Z,7.10
2019-03-30T19:54:58.078Z,7.20
2019-03-30T19:57:42.651Z,7.20
2019-03-30T20:00:23.678Z,7.20
2019-03-30T20:03:04.099Z,7.30
2019-03-30T20:05:45.427Z,7.30
2019-03-30T20:08:26.641Z,7.30
2019-03-30T20:11:07.392Z,7.30
2019-03-30T20:13:48.350Z,7.20
2019-03-30T20:16:29.385Z,7.10
2019-03-30T20:22:01.388Z,7.00
2019-03-30T20:24:42.019Z,7.00
2019-03-30T20:27:23.115Z,6.90
2019-03-30T20:30:03.815Z,6.90
2019-03-30T20:32:44.953Z,6.80
2019-03-30T20:35:26.109Z,6.80
2019-03-30T20:38:07.483Z,6.70
2019-03-30T20:43:32.851Z,6.60
2019-03-30T20:49:02.410Z,6.40
2019-03-30T20:54:28.218Z,6.30
2019-03-30T20:57:14.006Z,6.20
2019-03-30T20:59:55.390Z,6.10
2019-03-30T21:02:37.046Z,5.90
2019-03-30T21:05:18.562Z,5.80
2019-03-30T21:08:00.261Z,5.70
2019-03-30T21:10:41.890Z,5.60
2019-03-30T21:16:09.570Z,5.40
2019-03-30T21:18:51.436Z,5.40
2019-03-30T21:21:32.998Z,5.30
2019-03-30T21:24:13.952Z,5.20
2019-03-30T21:29:53.630Z,5.00
2019-03-30T21:32:22.942Z,5.00
2019-03-30T21:35:03.948Z,5.00
2019-03-30T21:37:44.911Z,5.00
2019-03-30T21:43:11.513Z,4.90
2019-03-30T21:45:52.726Z,4.80
2019-03-30T21:48:34.212Z,4.70
2019-03-30T21:54:01.691Z,4.60
2019-03-30T21:56:43.603Z,4.50
2019-03-30T21:59:25.155Z,4.50
2019-03-30T22:02:06.538Z,4.40
2019-03-30T22:04:47.870Z,4.40
2019-03-30T22:07:28.770Z,4.30
2019-03-30T22:10:10.162Z,4.30
2019-03-30T22:12:51.821Z,4.30
2019-03-30T22:15:34.208Z,4.30
2019-03-30T22:18:15.915Z,4.30
2019-03-30T22:20:59.564Z,4.30
2019-03-30T22:23:40.726Z,4.30
2019-03-30T22:26:24.836Z,4.30
2019-03-30T22:29:05.695Z,4.40
2019-03-30T22:34:32.402Z,4.20
2019-03-30T22:37:14.479Z,4.20
2019-03-30T22:39:56.625Z,4.10
2019-03-30T22:42:38.159Z,4.00
2019-03-30T22:45:21.590Z,4.10
2019-03-30T22:48:03.298Z,4.10
2019-03-30T22:50:44.943Z,4.10
2019-03-30T22:53:26.463Z,4.10
2019-03-30T22:58:53.148Z,4.10
2019-03-30T23:01:34.725Z,4.10
2019-03-30T23:04:16.943Z,4.10
2019-03-30T23:06:58.277Z,4.00
2019-03-30T23:09:40.527Z,4.00
2019-03-30T23:15:05.545Z,3.90
2019-03-30T23:17:47.011Z,3.90
2019-03-30T23:20:29.157Z,3.90
2019-03-30T23:25:58.364Z,3.90
2019-03-30T23:28:39.668Z,3.90
2019-03-30T23:37:10.227Z,3.80
2019-03-30T23:39:51.116Z,3.80
2019-03-30T23:45:17.788Z,3.80
2019-03-30T23:50:43.401Z,3.70
2019-03-30T23:56:09.266Z,3.80
2019-03-30T23:58:50.677Z,3.80
